createdAt,value
2019-03-13T00:02:01.353Z,5.31
2019-03-13T00:04:31.037Z,5.40
2019-03-13T00:07:00.733Z,5.36
2019-03-13T00:09:30.438Z,5.37
2019-03-13T00:12:00.154Z,5.39
2019-03-13T00:14:29.845Z,5.31
2019-03-13T00:16:59.505Z,5.26
2019-03-13T00:19:29.194Z,5.25
2019-03-13T00:21:59.024Z,5.21
2019-03-13T00:24:28.751Z,5.15
2019-03-13T00:26:58.439Z,5.03
2019-03-13T00:29:28.131Z,4.93
2019-03-13T00:31:59.586Z,4.85
2019-03-13T00:34:29.146Z,4.85
2019-03-13T00:36:58.800Z,4.79
2019-03-13T00:39:30.179Z,4.78
2019-03-13T00:42:03.436Z,4.71
2019-03-13T00:44:33.055Z,4.76
2019-03-13T00:47:02.731Z,4.82
2019-03-13T00:49:32.426Z,4.67
2019-03-13T00:52:02.088Z,4.67
2019-03-13T00:54:31.720Z,4.74
2019-03-13T00:57:01.369Z,4.71
2019-03-13T00:59:31.053Z,4.73
2019-03-13T01:02:18.374Z,4.67
2019-03-13T01:04:49.739Z,4.69
2019-03-13T01:07:19.385Z,4.65
2019-03-13T01:09:49.201Z,4.65
2019-03-13T01:12:18.963Z,4.60
2019-03-13T01:14:48.591Z,4.60
2019-03-13T01:17:18.250Z,4.65
2019-03-13T01:19:47.943Z,4.63
2019-03-13T01:22:17.628Z,4.62
2019-03-13T01:24:47.345Z,4.59
2019-03-13T01:27:16.979Z,4.61
2019-03-13T01:29:46.639Z,4.64
2019-03-13T01:32:33.987Z,4.65
2019-03-13T01:35:08.505Z,4.67
2019-03-13T01:37:38.173Z,4.66
2019-03-13T01:40:10.427Z,4.67
2019-03-13T01:42:40.080Z,4.69
2019-03-13T01:45:10.876Z,4.69
2019-03-13T01:47:44.287Z,4.70
2019-03-13T01:50:14.036Z,4.79
2019-03-13T01:52:43.685Z,4.84
2019-03-13T01:55:13.494Z,4.84
2019-03-13T01:57:43.145Z,4.88
2019-03-13T02:00:17.044Z,4.90
2019-03-13T02:02:46.778Z,5.01
2019-03-13T02:05:16.421Z,5.04
2019-03-13T02:07:46.086Z,5.05
2019-03-13T02:10:15.880Z,5.09
2019-03-13T02:12:45.566Z,5.13
2019-03-13T02:15:18.504Z,5.16
2019-03-13T02:17:48.264Z,5.14
2019-03-13T02:20:18.010Z,5.06
2019-03-13T02:22:47.685Z,5.12
2019-03-13T02:25:18.995Z,5.24
2019-03-13T02:27:48.639Z,5.28
2019-03-13T02:30:21.696Z,5.26
2019-03-13T02:32:53.321Z,5.19
2019-03-13T02:35:23.108Z,5.22
2019-03-13T02:37:52.900Z,5.18
2019-03-13T02:40:22.595Z,5.23
2019-03-13T02:42:52.208Z,5.17
2019-03-13T02:45:21.966Z,5.24
2019-03-13T02:47:51.607Z,5.20
2019-03-13T02:50:21.294Z,5.23
2019-03-13T02:52:50.924Z,5.24
2019-03-13T02:55:20.597Z,5.18
2019-03-13T02:57:50.232Z,5.14
2019-03-13T03:00:27.424Z,5.04
2019-03-13T03:03:01.618Z,5.00
2019-03-13T03:05:31.328Z,4.92
2019-03-13T03:08:00.952Z,4.90
2019-03-13T03:10:32.140Z,4.89
2019-03-13T03:13:02.058Z,4.86
2019-03-13T03:15:32.001Z,4.94
2019-03-13T03:18:01.812Z,4.89
2019-03-13T03:20:31.984Z,4.93
2019-03-13T03:23:01.986Z,4.93
2019-03-13T03:25:31.801Z,4.82
2019-03-13T03:28:01.471Z,4.84
2019-03-13T03:30:32.097Z,4.93
2019-03-13T03:33:01.760Z,4.97
2019-03-13T03:35:31.552Z,4.85
2019-03-13T03:38:01.726Z,4.86
2019-03-13T03:40:31.685Z,4.90
2019-03-13T03:43:01.337Z,4.92
2019-03-13T03:45:30.981Z,4.93
2019-03-13T03:48:00.660Z,4.89
2019-03-13T03:50:30.388Z,4.90
2019-03-13T03:53:00.093Z,4.97
2019-03-13T03:55:29.841Z,4.94
2019-03-13T03:57:59.537Z,4.94
2019-03-13T04:00:29.245Z,4.96
2019-03-13T04:02:59.017Z,5.09
2019-03-13T04:05:28.889Z,5.05
2019-03-13T04:07:58.588Z,5.01
2019-03-13T04:10:28.311Z,4.99
2019-03-13T04:12:58.348Z,5.06
2019-03-13T04:15:28.099Z,4.99
2019-03-13T04:17:57.809Z,5.08
2019-03-13T04:20:27.551Z,5.06
2019-03-13T04:22:57.207Z,5.03
2019-03-13T04:25:29.553Z,5.06
2019-03-13T04:27:59.569Z,5.06
2019-03-13T04:30:29.314Z,5.01
2019-03-13T04:32:59.101Z,5.02
2019-03-13T04:35:28.734Z,5.01
2019-03-13T04:37:58.384Z,5.06
2019-03-13T04:40:28.035Z,5.03
2019-03-13T04:42:57.718Z,4.93
2019-03-13T04:45:27.390Z,5.01
2019-03-13T04:47:57.063Z,4.98
2019-03-13T04:50:26.863Z,4.99
2019-03-13T04:52:56.613Z,5.11
2019-03-13T04:55:26.266Z,5.07
2019-03-13T04:57:55.946Z,5.11
2019-03-13T05:00:25.672Z,5.14
2019-03-13T05:02:55.359Z,5.22
2019-03-13T05:05:40.154Z,5.23
2019-03-13T05:08:12.206Z,5.28
2019-03-13T05:10:42.231Z,5.23
2019-03-13T05:13:12.026Z,5.22
2019-03-13T05:15:41.798Z,5.17
2019-03-13T05:18:11.456Z,5.15
2019-03-13T05:20:41.129Z,5.15
2019-03-13T05:23:10.803Z,5.16
2019-03-13T05:25:40.450Z,5.23
2019-03-13T05:28:10.152Z,5.25
2019-03-13T05:30:39.853Z,5.22
2019-03-13T05:33:09.574Z,5.22
2019-03-13T05:35:39.227Z,5.29
2019-03-13T05:38:08.892Z,5.25
2019-03-13T05:40:38.557Z,5.31
2019-03-13T05:43:08.213Z,5.22
2019-03-13T05:45:37.865Z,5.31
2019-03-13T05:48:07.545Z,5.36
2019-03-13T05:50:37.201Z,5.36
2019-03-13T05:53:06.856Z,5.27
2019-03-13T05:55:36.500Z,5.41
2019-03-13T05:58:06.261Z,5.36
2019-03-13T06:00:35.904Z,5.19
2019-03-13T06:03:05.788Z,5.17
2019-03-13T06:05:35.505Z,5.22
2019-03-13T06:08:05.251Z,5.18
2019-03-13T06:10:35.002Z,5.20
2019-03-13T06:13:04.717Z,5.20
2019-03-13T06:15:34.369Z,5.12
2019-03-13T06:18:04.301Z,5.06
2019-03-13T06:20:34.021Z,5.06
2019-03-13T06:23:03.679Z,5.08
2019-03-13T06:25:33.514Z,4.99
2019-03-13T06:28:03.231Z,4.98
2019-03-13T06:30:36.343Z,4.95
2019-03-13T06:33:06.056Z,4.93
2019-03-13T06:35:35.709Z,4.89
2019-03-13T06:38:05.366Z,4.89
2019-03-13T06:40:35.130Z,4.95
2019-03-13T06:43:04.968Z,4.92
2019-03-13T06:45:34.607Z,4.93
2019-03-13T06:48:04.316Z,4.92
2019-03-13T06:50:34.069Z,4.96
2019-03-13T06:53:03.695Z,4.98
2019-03-13T06:55:37.914Z,4.98
2019-03-13T06:58:07.550Z,4.98
2019-03-13T07:00:50.370Z,5.07
2019-03-13T07:03:24.586Z,5.02
2019-03-13T07:05:59.659Z,5.07
2019-03-13T07:08:31.052Z,5.05
2019-03-13T07:11:14.260Z,5.16
2019-03-13T07:13:57.538Z,5.13
2019-03-13T07:16:37.987Z,5.21
2019-03-13T07:19:18.053Z,5.28
2019-03-13T07:21:52.294Z,5.38
2019-03-13T07:24:32.368Z,5.30
2019-03-13T07:27:09.168Z,5.32
2019-03-13T07:29:43.083Z,5.38
2019-03-13T07:32:14.435Z,5.44
2019-03-13T07:34:48.720Z,5.41
2019-03-13T07:37:20.070Z,5.34
2019-03-13T07:40:00.716Z,5.35
2019-03-13T07:42:32.075Z,5.36
2019-03-13T07:45:03.365Z,5.33
2019-03-13T07:47:46.931Z,5.28
2019-03-13T07:50:21.088Z,5.35
2019-03-13T07:52:55.298Z,5.45
2019-03-13T07:55:35.508Z,5.46
2019-03-13T07:58:10.071Z,5.50
2019-03-13T08:00:56.763Z,5.51
2019-03-13T08:03:30.828Z,5.54
2019-03-13T08:06:17.988Z,5.58
2019-03-13T08:08:49.288Z,5.55
2019-03-13T08:11:23.276Z,5.53
2019-03-13T08:13:54.664Z,5.57
2019-03-13T08:16:28.463Z,5.63
2019-03-13T08:19:08.862Z,5.65
2019-03-13T08:21:58.325Z,5.74
2019-03-13T08:24:45.836Z,5.73
2019-03-13T08:27:33.646Z,5.73
2019-03-13T08:30:21.151Z,5.85
2019-03-13T08:32:58.523Z,5.97
2019-03-13T08:35:38.839Z,5.92
2019-03-13T08:38:28.492Z,5.91
2019-03-13T08:41:05.783Z,5.90
2019-03-13T08:43:37.199Z,5.87
2019-03-13T08:46:20.585Z,6.02
2019-03-13T08:48:51.966Z,6.06
2019-03-13T08:51:38.386Z,6.16
2019-03-13T08:54:26.279Z,6.21
2019-03-13T08:57:03.260Z,6.23
2019-03-13T08:59:43.778Z,6.24
2019-03-13T09:02:24.085Z,6.34
2019-03-13T09:05:04.145Z,6.33
2019-03-13T09:07:51.460Z,6.28
2019-03-13T09:10:25.694Z,6.34
2019-03-13T09:13:01.593Z,6.33
2019-03-13T09:15:35.534Z,6.39
2019-03-13T09:18:24.810Z,6.40
2019-03-13T09:21:14.261Z,6.43
2019-03-13T09:23:48.179Z,6.51
2019-03-13T09:26:19.521Z,6.51
2019-03-13T09:29:07.063Z,6.47
2019-03-13T09:31:50.612Z,6.32
2019-03-13T09:34:40.003Z,6.31
2019-03-13T09:37:11.284Z,6.18
2019-03-13T09:39:58.804Z,6.11
2019-03-13T09:42:30.135Z,6.15
2019-03-13T09:45:01.494Z,6.12
2019-03-13T09:47:32.815Z,6.18
2019-03-13T09:50:04.198Z,6.24
2019-03-13T09:52:51.894Z,6.21
2019-03-13T09:55:23.209Z,6.31
2019-03-13T09:58:06.583Z,6.24
2019-03-13T10:00:47.535Z,6.20
2019-03-13T10:03:18.881Z,6.21
2019-03-13T10:05:50.185Z,6.26
2019-03-13T10:08:24.303Z,6.30
2019-03-13T10:10:55.691Z,6.27
2019-03-13T10:13:27.007Z,6.34
2019-03-13T10:15:58.386Z,6.30
2019-03-13T10:18:35.676Z,6.37
2019-03-13T10:21:24.173Z,6.33
2019-03-13T10:24:13.323Z,6.50
2019-03-13T10:26:59.956Z,6.62
2019-03-13T10:29:31.289Z,6.48
2019-03-13T10:32:02.641Z,6.34
2019-03-13T10:34:42.986Z,6.35
2019-03-13T10:37:20.286Z,6.40
2019-03-13T10:39:51.584Z,6.39
2019-03-13T10:42:28.743Z,6.54
2019-03-13T10:45:05.668Z,6.49
2019-03-13T10:47:36.962Z,6.46
2019-03-13T10:50:13.913Z,6.50
2019-03-13T10:52:57.358Z,6.51
2019-03-13T10:55:37.823Z,6.51
2019-03-13T10:58:11.476Z,6.58
2019-03-13T11:00:45.909Z,6.76
2019-03-13T11:03:23.212Z,6.75
2019-03-13T11:06:11.158Z,6.76
2019-03-13T11:08:48.363Z,6.85
2019-03-13T11:11:31.694Z,6.87
2019-03-13T11:14:14.993Z,7.01
2019-03-13T11:16:52.240Z,7.11
2019-03-13T11:19:32.738Z,7.02
2019-03-13T11:22:15.937Z,6.91
2019-03-13T11:24:47.205Z,6.84
2019-03-13T11:27:27.921Z,6.78
2019-03-13T11:30:08.186Z,6.70
2019-03-13T11:32:57.499Z,6.72
2019-03-13T11:35:28.796Z,6.71
2019-03-13T11:38:00.217Z,6.79
2019-03-13T11:40:48.052Z,6.79
2019-03-13T11:43:22.154Z,6.81
2019-03-13T11:46:11.429Z,6.68
2019-03-13T11:48:42.741Z,6.64
2019-03-13T11:51:17.158Z,6.45
2019-03-13T11:53:51.388Z,6.41
2019-03-13T11:56:34.723Z,6.26
2019-03-13T11:59:06.065Z,6.68
2019-03-13T12:01:45.459Z,6.17
2019-03-13T12:04:26.560Z,6.12
2019-03-13T12:07:00.392Z,6.09
2019-03-13T12:09:31.739Z,6.12
2019-03-13T12:12:06.206Z,6.09
2019-03-13T12:14:37.581Z,6.15
2019-03-13T12:17:11.526Z,6.27
2019-03-13T12:19:48.514Z,6.33
2019-03-13T12:22:35.848Z,6.45
2019-03-13T12:25:26.764Z,6.39
2019-03-13T12:28:10.280Z,6.38
2019-03-13T12:30:41.587Z,6.37
2019-03-13T12:33:28.120Z,6.37
2019-03-13T12:35:59.424Z,6.39
2019-03-13T12:38:42.828Z,6.45
2019-03-13T12:41:17.152Z,6.42
2019-03-13T12:43:51.269Z,6.51
2019-03-13T12:46:27.042Z,6.55
2019-03-13T12:49:10.499Z,6.50
2019-03-13T12:51:50.845Z,6.60
2019-03-13T12:54:24.814Z,6.68
2019-03-13T12:57:04.844Z,6.56
2019-03-13T12:59:41.814Z,6.70
2019-03-13T13:02:28.152Z,6.56
2019-03-13T13:04:59.468Z,6.54
2019-03-13T13:07:33.769Z,6.61
2019-03-13T13:10:08.499Z,6.61
2019-03-13T13:12:39.907Z,6.70
2019-03-13T13:15:27.632Z,6.63
2019-03-13T13:18:08.021Z,6.63
2019-03-13T13:20:37.682Z,6.77
2019-03-13T13:23:07.392Z,7.03
2019-03-13T13:25:37.072Z,7.10
2019-03-13T13:28:06.929Z,7.08
2019-03-13T13:30:36.779Z,6.94
2019-03-13T13:33:06.514Z,6.75
2019-03-13T13:35:36.155Z,6.62
2019-03-13T13:38:05.804Z,6.51
2019-03-13T13:40:35.701Z,6.49
2019-03-13T13:43:05.449Z,6.59
2019-03-13T13:45:40.591Z,6.79
2019-03-13T13:48:10.258Z,6.94
2019-03-13T13:50:40.032Z,7.05
2019-03-13T13:53:09.684Z,6.88
2019-03-13T13:55:39.487Z,6.96
2019-03-13T13:58:09.131Z,6.98
2019-03-13T14:00:38.840Z,7.02
2019-03-13T14:03:08.518Z,7.18
2019-03-13T14:05:40.788Z,7.12
2019-03-13T14:08:09.709Z,6.97
2019-03-13T14:10:39.344Z,6.97
2019-03-13T14:13:15.004Z,6.97
2019-03-13T14:15:44.647Z,7.08
2019-03-13T14:18:14.411Z,7.08
2019-03-13T14:20:44.078Z,7.27
2019-03-13T14:23:13.761Z,7.29
2019-03-13T14:25:43.395Z,7.39
2019-03-13T14:28:13.205Z,7.36
2019-03-13T14:30:42.860Z,7.22
2019-03-13T14:33:12.773Z,7.10
2019-03-13T14:35:42.459Z,7.14
2019-03-13T14:38:12.199Z,7.07
2019-03-13T14:40:41.816Z,7.09
2019-03-13T14:43:11.490Z,7.21
2019-03-13T14:45:41.244Z,7.12
2019-03-13T14:48:10.889Z,7.22
2019-03-13T14:50:40.529Z,7.30
2019-03-13T14:53:10.269Z,7.15
2019-03-13T14:55:40.118Z,7.03
2019-03-13T14:58:09.857Z,7.10
2019-03-13T15:00:39.579Z,7.17
2019-03-13T15:03:09.283Z,6.87
2019-03-13T15:05:39.002Z,7.00
2019-03-13T15:08:08.710Z,6.86
2019-03-13T15:10:38.364Z,6.78
2019-03-13T15:13:08.096Z,6.75
2019-03-13T15:15:37.866Z,6.64
2019-03-13T15:18:07.501Z,6.75
2019-03-13T15:20:37.235Z,6.84
2019-03-13T15:23:07.682Z,6.81
2019-03-13T15:25:37.670Z,6.74
2019-03-13T15:28:07.338Z,6.77
2019-03-13T15:30:37.164Z,6.83
2019-03-13T15:33:06.961Z,6.70
2019-03-13T15:35:36.765Z,6.64
2019-03-13T15:38:06.472Z,6.64
2019-03-13T15:40:36.226Z,6.67
2019-03-13T15:43:05.947Z,6.53
2019-03-13T15:45:36.066Z,6.49
2019-03-13T15:48:05.906Z,6.44
2019-03-13T15:50:35.572Z,6.42
2019-03-13T15:53:05.224Z,6.35
2019-03-13T15:55:34.881Z,6.44
2019-03-13T15:58:04.697Z,6.34
2019-03-13T16:00:34.432Z,6.29
2019-03-13T16:03:04.218Z,6.39
2019-03-13T16:05:33.834Z,6.40
2019-03-13T16:08:03.570Z,6.37
2019-03-13T16:10:33.270Z,6.42
2019-03-13T16:13:04.621Z,6.29
2019-03-13T16:15:38.810Z,6.35
2019-03-13T16:18:08.483Z,6.37
2019-03-13T16:20:38.279Z,6.37
2019-03-13T16:23:07.990Z,6.45
2019-03-13T16:25:37.711Z,6.42
2019-03-13T16:28:07.549Z,6.40
2019-03-13T16:30:51.113Z,6.40
2019-03-13T16:33:20.832Z,6.37
2019-03-13T16:35:50.449Z,6.44
2019-03-13T16:38:20.169Z,6.41
2019-03-13T16:40:49.836Z,6.49
2019-03-13T16:43:19.505Z,6.38
2019-03-13T16:45:49.171Z,6.36
2019-03-13T16:48:18.967Z,6.47
2019-03-13T16:50:49.212Z,6.37
2019-03-13T16:53:18.869Z,6.32
2019-03-13T16:55:48.575Z,6.31
2019-03-13T16:58:18.209Z,6.35
2019-03-13T17:00:50.437Z,6.34
2019-03-13T17:03:19.579Z,6.33
2019-03-13T17:05:49.795Z,6.15
2019-03-13T17:08:19.422Z,6.10
2019-03-13T17:10:49.134Z,5.94
2019-03-13T17:13:18.815Z,5.84
2019-03-13T17:15:48.567Z,5.80
2019-03-13T17:18:18.350Z,5.70
2019-03-13T17:20:48.302Z,5.57
2019-03-13T17:23:18.359Z,5.56
2019-03-13T17:25:48.081Z,5.43
2019-03-13T17:28:17.822Z,5.45
2019-03-13T17:30:47.523Z,5.48
2019-03-13T17:33:17.263Z,5.45
2019-03-13T17:35:47.272Z,5.58
2019-03-13T17:38:17.005Z,5.51
2019-03-13T17:40:46.809Z,5.58
2019-03-13T17:43:16.507Z,5.57
2019-03-13T17:45:46.433Z,5.57
2019-03-13T17:48:16.233Z,5.53
2019-03-13T17:50:46.043Z,5.60
2019-03-13T17:53:15.729Z,5.52
2019-03-13T17:55:45.658Z,5.49
2019-03-13T17:58:15.336Z,5.48
2019-03-13T18:00:52.249Z,5.59
2019-03-13T18:03:23.543Z,5.50
2019-03-13T18:05:53.357Z,5.67
2019-03-13T18:08:23.062Z,5.69
2019-03-13T18:10:52.811Z,5.72
2019-03-13T18:13:22.612Z,5.75
2019-03-13T18:15:52.560Z,5.74
2019-03-13T18:18:22.635Z,5.87
2019-03-13T18:20:53.140Z,5.89
2019-03-13T18:23:22.963Z,5.94
2019-03-13T18:25:52.755Z,5.94
2019-03-13T18:28:22.517Z,5.92
2019-03-13T18:30:52.375Z,5.97
2019-03-13T18:33:22.576Z,5.93
2019-03-13T18:35:52.547Z,5.84
2019-03-13T18:38:22.246Z,5.89
2019-03-13T18:40:51.991Z,5.90
2019-03-13T18:43:21.951Z,5.86
2019-03-13T18:45:52.124Z,5.83
2019-03-13T18:48:22.012Z,5.82
2019-03-13T18:50:52.111Z,5.85
2019-03-13T18:53:22.567Z,5.79
2019-03-13T18:55:52.632Z,5.83
2019-03-13T18:58:22.531Z,5.89
2019-03-13T19:00:52.434Z,5.86
2019-03-13T19:03:22.439Z,6.01
2019-03-13T19:05:54.743Z,5.98
2019-03-13T19:08:26.891Z,5.96
2019-03-13T19:10:56.191Z,5.96
2019-03-13T19:13:26.148Z,6.00
2019-03-13T19:15:58.128Z,6.01
2019-03-13T19:18:28.225Z,6.02
2019-03-13T19:20:58.691Z,6.00
2019-03-13T19:23:28.819Z,6.04
2019-03-13T19:26:07.201Z,6.04
2019-03-13T19:28:37.041Z,6.15
2019-03-13T19:31:08.742Z,6.21
2019-03-13T19:33:38.717Z,6.15
2019-03-13T19:36:08.913Z,6.19
2019-03-13T19:38:41.076Z,6.22
2019-03-13T19:41:10.389Z,6.27
2019-03-13T19:43:40.202Z,6.25
2019-03-13T19:46:10.088Z,6.22
2019-03-13T19:48:40.089Z,6.27
2019-03-13T19:51:09.860Z,6.35
2019-03-13T19:53:41.931Z,6.37
2019-03-13T19:56:11.537Z,6.45
2019-03-13T19:58:41.387Z,6.42
2019-03-13T20:01:11.348Z,6.45
2019-03-13T20:03:41.276Z,6.43
2019-03-13T20:06:11.159Z,6.41
2019-03-13T20:08:41.219Z,6.45
2019-03-13T20:11:11.508Z,6.48
2019-03-13T20:13:41.872Z,6.41
2019-03-13T20:16:11.871Z,6.44
2019-03-13T20:18:41.621Z,6.47
2019-03-13T20:21:11.487Z,6.46
2019-03-13T20:23:41.316Z,6.40
2019-03-13T20:26:11.153Z,6.35
2019-03-13T20:28:41.261Z,6.33
2019-03-13T20:31:11.226Z,6.38
2019-03-13T20:33:41.031Z,6.38
2019-03-13T20:36:10.830Z,6.39
2019-03-13T20:38:40.900Z,6.42
2019-03-13T20:41:10.846Z,6.38
2019-03-13T20:43:41.270Z,6.37
2019-03-13T20:46:11.211Z,6.43
2019-03-13T20:48:41.025Z,6.43
2019-03-13T20:51:10.898Z,6.41
2019-03-13T20:53:40.830Z,6.41
2019-03-13T20:56:10.679Z,6.39
2019-03-13T20:58:40.501Z,6.42
2019-03-13T21:01:10.602Z,6.46
2019-03-13T21:03:40.625Z,6.50
2019-03-13T21:06:10.536Z,6.57
2019-03-13T21:08:40.309Z,6.62
2019-03-13T21:11:10.081Z,6.57
2019-03-13T21:13:40.125Z,6.55
2019-03-13T21:16:09.878Z,6.52
2019-03-13T21:18:39.875Z,6.48
2019-03-13T21:21:09.615Z,6.45
2019-03-13T21:23:39.515Z,6.50
2019-03-13T21:26:09.356Z,6.51
2019-03-13T21:28:39.348Z,6.48
2019-03-13T21:31:09.151Z,6.50
2019-03-13T21:33:38.903Z,6.38
2019-03-13T21:36:08.709Z,6.39
2019-03-13T21:38:38.603Z,6.38
2019-03-13T21:41:08.436Z,6.30
2019-03-13T21:43:38.157Z,6.26
2019-03-13T21:46:08.032Z,6.22
2019-03-13T21:48:38.098Z,6.24
2019-03-13T21:51:08.091Z,6.26
2019-03-13T21:53:37.956Z,6.31
2019-03-13T21:56:07.828Z,6.27
2019-03-13T21:58:38.489Z,6.30
2019-03-13T22:01:19.342Z,6.30
2019-03-13T22:03:40.069Z,6.27
2019-03-13T22:06:09.866Z,6.28
2019-03-13T22:08:39.589Z,6.30
2019-03-13T22:11:09.726Z,6.29
2019-03-13T22:13:40.201Z,6.33
2019-03-13T22:16:10.116Z,6.26
2019-03-13T22:18:39.834Z,6.32
2019-03-13T22:21:09.642Z,6.35
2019-03-13T22:23:39.380Z,6.34
2019-03-13T22:26:09.192Z,6.33
2019-03-13T22:28:39.008Z,6.32
2019-03-13T22:31:08.844Z,6.30
2019-03-13T22:33:39.034Z,6.28
2019-03-13T22:36:08.779Z,6.27
2019-03-13T22:38:38.505Z,6.24
2019-03-13T22:41:08.226Z,6.25
2019-03-13T22:43:38.020Z,6.30
2019-03-13T22:46:07.835Z,6.33
2019-03-13T22:48:37.635Z,6.26
2019-03-13T22:51:07.403Z,6.21
2019-03-13T22:53:37.188Z,6.12
2019-03-13T22:56:07.133Z,6.03
2019-03-13T22:58:36.973Z,6.06
2019-03-13T23:01:09.644Z,6.01
2019-03-13T23:03:40.674Z,6.05
2019-03-13T23:06:10.814Z,6.04
2019-03-13T23:08:40.661Z,6.05
2019-03-13T23:11:10.539Z,6.11
2019-03-13T23:13:40.363Z,6.17
2019-03-13T23:16:10.162Z,6.17
2019-03-13T23:18:39.886Z,6.16
2019-03-13T23:21:09.774Z,6.22
2019-03-13T23:23:39.568Z,6.12
2019-03-13T23:26:09.355Z,6.17
2019-03-13T23:28:39.169Z,6.16
2019-03-13T23:31:08.937Z,6.15
2019-03-13T23:33:38.797Z,6.20
2019-03-13T23:36:08.612Z,6.21
2019-03-13T23:38:38.405Z,6.15
2019-03-13T23:41:08.123Z,6.22
2019-03-13T23:43:38.026Z,6.19
2019-03-13T23:46:08.007Z,6.10
2019-03-13T23:48:37.817Z,6.16
2019-03-13T23:51:07.549Z,6.19
2019-03-13T23:53:37.423Z,6.12
2019-03-13T23:56:07.299Z,6.14
2019-03-13T23:58:37.145Z,6.16
